Time;durP1;ratioP1;P1;durP2;ratioP2;P2;SDS_P1;SDS_P2;PMS_P1;PMS_P2;Temp;Humidity;BMP_temperature;BMP_pressure;BME280_temperature;BME280_humidity;BME280_pressure;Samples;Min_cycle;Max_cycle;Signal;HPM_P1;HPM_P2
2023/04/06 00:00:15;;;;;;;24.17;11.47;;;3.10;85.60;;;;;;4975249;28;20865;-61
2023/04/06 00:02:42;;;;;;;19.50;11.53;;;3.00;85.70;;;;;;4985474;28;20487;-60
2023/04/06 00:05:10;;;;;;;21.37;12.33;;;3.00;86.50;;;;;;4958814;28;20884;-60
2023/04/06 00:07:37;;;;;;;23.70;12.00;;;2.80;86.80;;;;;;4966565;28;20493;-60
2023/04/06 00:10:04;;;;;;;20.93;11.60;;;2.80;87.20;;;;;;4969106;28;20530;-60
2023/04/06 00:12:31;;;;;;;25.50;13.70;;;2.80;86.90;;;;;;4964914;28;20484;-60
2023/04/06 00:14:58;;;;;;;15.40;9.70;;;2.80;86.90;;;;;;4979523;28;20905;-60
2023/04/06 00:17:24;;;;;;;25.37;13.80;;;2.80;86.90;;;;;;4997095;28;20491;-60
2023/04/06 00:19:51;;;;;;;19.63;10.90;;;2.70;87.70;;;;;;4957300;28;20547;-60
2023/04/06 00:22:19;;;;;;;18.13;10.77;;;2.70;88.30;;;;;;4989354;28;20551;-60
2023/04/06 00:24:46;;;;;;;20.37;10.60;;;2.70;88.30;;;;;;4970445;28;20490;-60
2023/04/06 00:27:12;;;;;;;19.77;10.67;;;2.80;88.20;;;;;;4975254;28;20488;-60
2023/04/06 00:29:40;;;;;;;24.57;12.00;;;2.80;87.20;;;;;;5017301;28;20561;-60
2023/04/06 00:32:07;;;;;;;17.17;10.80;;;2.80;87.10;;;;;;5000394;28;20571;-60
2023/04/06 00:34:34;;;;;;;24.70;13.57;;;2.80;87.20;;;;;;5015031;28;20500;-60
2023/04/06 00:37:00;;;;;;;17.60;10.20;;;2.80;87.10;;;;;;5008571;28;20480;-60
2023/04/06 00:39:28;;;;;;;30.40;15.33;;;2.60;87.80;;;;;;4990418;28;20949;-60
2023/04/06 00:41:56;;;;;;;20.97;9.80;;;2.50;88.40;;;;;;5009742;28;20484;-60
2023/04/06 00:44:23;;;;;;;18.13;7.60;;;2.10;89.50;;;;;;5004142;28;20481;-60
2023/04/06 00:46:50;;;;;;;18.67;10.73;;;2.00;90.00;;;;;;4972174;28;20512;-60
2023/04/06 00:49:16;;;;;;;16.73;9.47;;;2.00;89.60;;;;;;4960765;28;21013;-60
2023/04/06 00:51:43;;;;;;;29.03;12.77;;;2.10;89.50;;;;;;4996390;28;20508;-60
2023/04/06 00:54:10;;;;;;;17.83;9.87;;;2.00;90.00;;;;;;4995163;28;20477;-60
2023/04/06 00:56:38;;;;;;;26.87;12.47;;;1.80;90.00;;;;;;4970033;28;20492;-60
2023/04/06 00:59:05;;;;;;;22.50;9.50;;;1.80;90.40;;;;;;4987700;28;20490;-60
2023/04/06 01:01:32;;;;;;;34.77;16.00;;;1.80;90.00;;;;;;4958728;28;20492;-60
2023/04/06 01:03:59;;;;;;;20.23;11.23;;;1.90;89.50;;;;;;4977261;28;20493;-60
2023/04/06 01:06:25;;;;;;;39.60;15.73;;;1.80;89.60;;;;;;4987226;28;20854;-60
2023/04/06 01:08:52;;;;;;;23.40;11.33;;;1.80;90.00;;;;;;4965417;28;20923;-60
2023/04/06 01:11:19;;;;;;;22.23;11.27;;;1.70;90.10;;;;;;4976278;28;20489;-60
2023/04/06 01:13:47;;;;;;;23.30;11.63;;;1.60;90.50;;;;;;4992570;28;20866;-60
2023/04/06 01:16:14;;;;;;;19.73;10.30;;;1.70;90.50;;;;;;4985295;28;21003;-60
2023/04/06 01:18:42;;;;;;;30.83;12.63;;;1.80;90.20;;;;;;4989871;28;20482;-59
2023/04/06 01:21:15;;;;;;;21.20;11.83;;;1.80;89.60;;;;;;4999509;28;20514;-60
2023/04/06 01:23:44;;;;;;;19.87;10.53;;;1.80;89.30;;;;;;4965422;28;20813;-60
2023/04/06 01:26:10;;;;;;;17.43;9.60;;;1.80;89.20;;;;;;4974633;28;21061;-60
2023/04/06 01:28:38;;;;;;;32.10;11.97;;;1.80;89.00;;;;;;4979885;28;20481;-60
2023/04/06 01:31:05;;;;;;;23.23;13.03;;;1.80;89.00;;;;;;4972066;28;20480;-60
2023/04/06 01:33:31;;;;;;;31.13;14.47;;;1.80;89.10;;;;;;4997339;28;20523;-60
2023/04/06 01:35:58;;;;;;;21.10;9.77;;;1.80;89.50;;;;;;4990761;28;20985;-60
2023/04/06 01:38:25;;;;;;;35.63;16.07;;;1.90;89.90;;;;;;4986042;28;20518;-60
2023/04/06 01:40:53;;;;;;;17.50;10.60;;;1.80;90.10;;;;;;4989662;28;20916;-60
2023/04/06 01:43:20;;;;;;;29.17;12.13;;;1.70;90.50;;;;;;4985375;28;20492;-60
2023/04/06 01:45:47;;;;;;;24.50;11.77;;;1.70;90.50;;;;;;4997012;28;20494;-60
2023/04/06 01:48:13;;;;;;;19.90;11.47;;;1.70;90.20;;;;;;5016268;28;20871;-60
2023/04/06 01:50:40;;;;;;;29.47;11.50;;;1.80;90.00;;;;;;4999784;28;21142;-60
2023/04/06 01:53:07;;;;;;;25.27;11.23;;;1.90;89.80;;;;;;5005328;28;20481;-60
2023/04/06 01:55:33;;;;;;;30.27;15.30;;;1.90;89.60;;;;;;4990984;28;21335;-60
2023/04/06 01:58:01;;;;;;;22.53;9.50;;;2.00;89.80;;;;;;4946885;28;20484;-60
2023/04/06 02:00:28;;;;;;;30.30;14.97;;;1.90;89.90;;;;;;4958930;28;20496;-60
2023/04/06 02:02:55;;;;;;;18.53;10.40;;;1.90;90.20;;;;;;4981902;28;20496;-60
2023/04/06 02:05:21;;;;;;;29.23;12.40;;;1.80;90.30;;;;;;4977233;28;20500;-60
2023/04/06 02:07:48;;;;;;;22.97;10.77;;;1.80;90.30;;;;;;5007694;28;21041;-60
2023/04/06 02:10:16;;;;;;;15.70;9.67;;;1.80;90.30;;;;;;4983973;28;20496;-60
2023/04/06 02:12:42;;;;;;;26.03;9.67;;;1.50;90.30;;;;;;5011026;28;21004;-60
2023/04/06 02:15:13;;;;;;;21.87;11.70;;;1.40;90.50;;;;;;4989470;28;20484;-60
2023/04/06 02:17:39;;;;;;;20.83;11.40;;;1.40;90.70;;;;;;4976944;28;20483;-60
2023/04/06 02:20:07;;;;;;;20.70;10.60;;;1.40;90.20;;;;;;4999895;28;20495;-60
2023/04/06 02:22:34;;;;;;;28.73;14.57;;;1.40;90.10;;;;;;4959103;28;20489;-60
2023/04/06 02:25:01;;;;;;;18.00;9.77;;;1.50;90.00;;;;;;5003295;28;20581;-60
2023/04/06 02:27:27;;;;;;;36.87;14.33;;;1.30;89.80;;;;;;4983777;28;20473;-60
2023/04/06 02:29:54;;;;;;;18.83;9.90;;;1.30;90.10;;;;;;4976391;28;20497;-60
2023/04/06 02:32:22;;;;;;;21.90;11.87;;;1.40;90.10;;;;;;4991534;28;20497;-60
2023/04/06 02:34:49;;;;;;;25.33;10.97;;;3.10;90.80;;;;;;4984412;28;20488;-60
2023/04/06 02:37:15;;;;;;;17.83;10.30;;;1.50;90.20;;;;;;5011134;28;20546;-60
2023/04/06 02:39:42;;;;;;;20.70;10.23;;;1.50;90.20;;;;;;5014566;28;20496;-60
2023/04/06 02:42:09;;;;;;;19.53;10.27;;;1.50;89.90;;;;;;4953303;28;20484;-60
2023/04/06 02:44:36;;;;;;;30.80;14.63;;;1.60;89.30;;;;;;4998290;28;20486;-60
2023/04/06 02:47:02;;;;;;;19.07;10.80;;;1.60;89.10;;;;;;5015268;28;20480;-60
2023/04/06 02:49:30;;;;;;;26.43;11.13;;;1.60;89.30;;;;;;4981082;28;20481;-62
2023/04/06 02:51:57;;;;;;;20.70;11.23;;;1.50;88.90;;;;;;4974090;28;20484;-60
2023/04/06 02:54:24;;;;;;;28.17;13.33;;;1.40;88.60;;;;;;4985947;28;20492;-60
2023/04/06 02:56:50;;;;;;;24.90;10.83;;;1.30;88.80;;;;;;4969531;28;20488;-60
2023/04/06 02:59:17;;;;;;;17.17;10.30;;;1.10;89.40;;;;;;4971479;28;20539;-60
2023/04/06 03:01:44;;;;;;;22.63;12.00;;;1.10;90.30;;;;;;4956462;28;20497;-60
2023/04/06 03:04:10;;;;;;;25.77;11.53;;;1.10;90.30;;;;;;4990448;28;20500;-60
2023/04/06 03:06:38;;;;;;;30.53;14.27;;;1.20;90.10;;;;;;4997622;28;21396;-60
2023/04/06 03:09:07;;;;;;;21.00;10.83;;;1.30;90.10;;;;;;4958846;28;21016;-60
2023/04/06 03:11:34;;;;;;;26.40;11.93;;;1.30;90.20;;;;;;4977406;28;20533;-60
2023/04/06 03:14:01;;;;;;;18.43;10.70;;;1.30;90.10;;;;;;4941058;28;20500;-60
2023/04/06 03:16:27;;;;;;;37.97;18.60;;;1.30;89.90;;;;;;4961674;28;20497;-60
2023/04/06 03:18:54;;;;;;;21.83;10.30;;;1.30;90.00;;;;;;4960997;28;21075;-61
2023/04/06 03:21:21;;;;;;;23.13;12.73;;;1.30;89.80;;;;;;4970197;28;20501;-60
2023/04/06 03:23:50;;;;;;;24.60;12.63;;;1.10;90.50;;;;;;4981976;28;20498;-60
2023/04/06 03:26:17;;;;;;;22.17;9.50;;;1.10;90.60;;;;;;4948637;28;20521;-60
2023/04/06 03:28:44;;;;;;;22.40;12.17;;;1.10;90.30;;;;;;4936004;28;21032;-60
2023/04/06 03:31:10;;;;;;;20.30;11.00;;;1.10;90.10;;;;;;4939362;28;20558;-60
2023/04/06 03:33:37;;;;;;;27.47;11.53;;;1.00;89.90;;;;;;4933441;28;20958;-60
2023/04/06 03:36:04;;;;;;;20.27;10.60;;;1.00;90.20;;;;;;4965598;28;20500;-60
2023/04/06 03:38:31;;;;;;;35.13;15.30;;;0.90;90.50;;;;;;4997943;28;20480;-60
2023/04/06 03:40:59;;;;;;;18.90;10.07;;;0.60;91.00;;;;;;4984100;28;20546;-60
2023/04/06 03:43:26;;;;;;;32.87;15.23;;;0.70;91.20;;;;;;5000075;28;20691;-60
2023/04/06 03:45:52;;;;;;;18.30;10.80;;;0.80;90.90;;;;;;4981821;28;20496;-60
2023/04/06 03:48:19;;;;;;;28.83;12.37;;;0.90;90.90;;;;;;4982851;28;20586;-60
2023/04/06 03:50:46;;;;;;;20.90;11.13;;;1.00;90.70;;;;;;5009139;28;20877;-60
2023/04/06 03:53:12;;;;;;;22.60;11.10;;;1.00;90.50;;;;;;4968512;28;20598;-60
2023/04/06 03:55:39;;;;;;;19.10;10.37;;;0.90;90.50;;;;;;4991114;28;20488;-61
2023/04/06 03:58:07;;;;;;;23.17;11.00;;;0.90;90.60;;;;;;4999735;28;20805;-60
2023/04/06 04:00:34;;;;;;;28.70;13.13;;;0.90;90.60;;;;;;4979938;28;20726;-60
2023/04/06 04:03:01;;;;;;;28.87;11.20;;;1.00;90.70;;;;;;4949946;28;20491;-60
2023/04/06 04:05:28;;;;;;;34.20;15.43;;;1.00;90.80;;;;;;5002242;28;20484;-60
2023/04/06 04:07:55;;;;;;;24.13;12.37;;;1.10;90.80;;;;;;5007078;28;20492;-60
2023/04/06 04:10:22;;;;;;;34.10;14.10;;;1.10;90.40;;;;;;4998783;28;21021;-60
2023/04/06 04:12:48;;;;;;;35.00;12.20;;;1.10;90.10;;;;;;4992014;28;20941;-60
2023/04/06 04:15:16;;;;;;;23.00;12.23;;;1.00;90.00;;;;;;4999493;28;20480;-60
2023/04/06 04:17:46;;;;;;;24.70;11.00;;;1.00;89.70;;;;;;4967119;28;20485;-61
2023/04/06 04:20:13;;;;;;;23.33;12.37;;;1.00;89.40;;;;;;5008085;28;21046;-60
2023/04/06 04:22:41;;;;;;;27.10;13.90;;;0.90;89.10;;;;;;4991303;28;20895;-60
2023/04/06 04:25:08;;;;;;;29.63;13.40;;;0.80;89.50;;;;;;4988507;28;20673;-60
2023/04/06 04:27:35;;;;;;;34.83;15.33;;;0.70;89.70;;;;;;5010901;28;21038;-60
2023/04/06 04:30:02;;;;;;;35.40;13.40;;;0.80;89.70;;;;;;4995565;28;20492;-60
2023/04/06 04:32:31;;;;;;;52.77;18.90;;;0.80;89.40;;;;;;4977384;28;20492;-60
2023/04/06 04:35:00;;;;;;;23.70;10.77;;;0.80;89.40;;;;;;4986704;28;20989;-60
2023/04/06 04:37:27;;;;;;;44.23;16.70;;;0.80;89.60;;;;;;4966379;28;20484;-60
2023/04/06 04:39:54;;;;;;;25.33;12.70;;;0.80;90.00;;;;;;4985596;28;20698;-60
2023/04/06 04:42:20;;;;;;;26.10;12.77;;;0.80;90.10;;;;;;4982966;28;20492;-60
2023/04/06 04:44:47;;;;;;;25.50;12.63;;;0.80;90.10;;;;;;4976856;28;20484;-60
2023/04/06 04:47:14;;;;;;;36.27;12.53;;;0.70;90.20;;;;;;4982414;28;20492;-60
2023/04/06 04:49:42;;;;;;;35.50;15.00;;;0.70;90.40;;;;;;4982603;28;20527;-60
2023/04/06 04:52:08;;;;;;;27.70;13.17;;;0.70;90.50;;;;;;4990251;28;20491;-60
2023/04/06 04:54:35;;;;;;;46.07;19.10;;;0.80;90.70;;;;;;4945240;28;20584;-60
2023/04/06 04:57:02;;;;;;;22.50;11.90;;;0.80;90.70;;;;;;4968989;28;20468;-60
2023/04/06 04:59:29;;;;;;;47.67;19.83;;;;;;;;;;5004829;28;20508;-60
2023/04/06 05:01:56;;;;;;;25.93;13.10;;;0.90;90.10;;;;;;4993089;28;20823;-60
2023/04/06 05:04:23;;;;;;;33.53;13.60;;;0.90;89.80;;;;;;4988721;28;20889;-61
2023/04/06 05:06:51;;;;;;;33.53;11.90;;;0.90;89.30;;;;;;5013696;28;20953;-60
2023/04/06 05:09:18;;;;;;;23.57;12.80;;;0.90;89.10;;;;;;5012032;28;20503;-60
2023/04/06 05:11:45;;;;;;;21.57;10.80;;;0.90;89.50;;;;;;5017344;28;21033;-60
2023/04/06 05:14:11;;;;;;;21.93;11.47;;;0.70;89.60;;;;;;5004670;28;20490;-61
2023/04/06 05:16:38;;;;;;;27.70;13.50;;;0.70;90.10;;;;;;4956960;28;20480;-61
2023/04/06 05:19:05;;;;;;;26.20;14.87;;;0.60;90.10;;;;;;5001840;28;20881;-60
2023/04/06 05:21:32;;;;;;;36.93;17.17;;;;;;;;;;5003937;28;20479;-60
2023/04/06 05:24:01;;;;;;;21.20;11.20;;;0.70;90.20;;;;;;4996516;28;20496;-60
2023/04/06 05:26:28;;;;;;;36.50;17.33;;;0.70;90.20;;;;;;5004728;28;20537;-61
2023/04/06 05:28:55;;;;;;;19.97;11.93;;;0.80;90.00;;;;;;4991744;28;20814;-61
2023/04/06 05:31:22;;;;;;;31.03;13.53;;;0.80;90.00;;;;;;4971952;28;20587;-60
2023/04/06 05:33:49;;;;;;;26.83;12.73;;;0.80;89.70;;;;;;4984437;28;20480;-61
2023/04/06 05:36:15;;;;;;;23.50;12.33;;;0.60;90.10;;;;;;5003616;28;20483;-60
2023/04/06 05:38:42;;;;;;;23.27;12.30;;;0.40;90.60;;;;;;4974076;28;20475;-61
2023/04/06 05:41:10;;;;;;;20.87;11.40;;;0.40;91.00;;;;;;4980363;28;21019;-60
2023/04/06 05:43:37;;;;;;;27.63;12.97;;;0.30;91.40;;;;;;4994916;28;20472;-60
2023/04/06 05:46:04;;;;;;;22.80;12.93;;;0.40;91.60;;;;;;4991423;28;20488;-61
2023/04/06 05:48:31;;;;;;;36.17;16.87;;;0.50;91.50;;;;;;4978164;28;21004;-61
2023/04/06 05:50:58;;;;;;;22.93;11.20;;;0.70;91.30;;;;;;4970914;28;20488;-61
2023/04/06 05:53:26;;;;;;;35.47;16.80;;;0.80;91.10;;;;;;4987536;28;21135;-60
2023/04/06 05:55:52;;;;;;;23.00;12.13;;;0.90;91.00;;;;;;4975997;28;20472;-61
2023/04/06 05:58:20;;;;;;;23.43;12.37;;;1.00;91.20;;;;;;4954440;28;20916;-60
2023/04/06 06:00:47;;;;;;;24.53;12.70;;;1.10;91.40;;;;;;4956507;28;21048;-61
2023/04/06 06:03:15;;;;;;;23.40;13.20;;;1.30;91.70;;;;;;4986593;28;20484;-60
2023/04/06 06:05:41;;;;;;;26.60;14.63;;;1.70;92.00;;;;;;4988847;28;20499;-61
2023/04/06 06:08:08;;;;;;;24.03;14.03;;;1.90;91.80;;;;;;4979563;28;20492;-60
2023/04/06 06:10:35;;;;;;;35.03;18.97;;;2.20;91.50;;;;;;4982841;28;20817;-61
2023/04/06 06:13:02;;;;;;;32.03;16.20;;;2.70;91.20;;;;;;5003752;28;20480;-60
2023/04/06 06:15:30;;;;;;;30.20;19.17;;;3.10;90.90;;;;;;4996702;28;20492;-60
2023/04/06 06:17:57;;;;;;;24.30;15.53;;;3.60;90.50;;;;;;4959807;28;20474;-60
2023/04/06 06:20:23;;;;;;;33.70;17.47;;;5.60;90.90;;;;;;4991592;28;20521;-60
2023/04/06 06:22:50;;;;;;;27.40;15.87;;;4.80;89.70;;;;;;4993298;28;20486;-60
2023/04/06 06:25:17;;;;;;;28.10;18.33;;;5.30;88.70;;;;;;4985484;28;20497;-61
2023/04/06 06:27:44;;;;;;;33.73;17.70;;;6.20;88.80;;;;;;4986077;28;20492;-60
2023/04/06 06:30:11;;;;;;;22.40;15.97;;;7.00;87.10;;;;;;5017479;28;20484;-60
2023/04/06 06:32:39;;;;;;;20.67;15.83;;;7.70;84.70;;;;;;5017290;28;20777;-60
2023/04/06 06:35:06;;;;;;;21.07;14.23;;;8.60;82.00;;;;;;4966264;28;20981;-60
2023/04/06 06:37:33;;;;;;;26.80;16.73;;;9.20;81.50;;;;;;5005743;28;20488;-61
2023/04/06 06:39:59;;;;;;;21.83;16.00;;;9.60;79.20;;;;;;4988389;28;20806;-61
2023/04/06 06:42:26;;;;;;;21.70;17.20;;;10.30;79.00;;;;;;5001833;28;20590;-61
2023/04/06 06:44:55;;;;;;;18.77;15.90;;;10.70;78.20;;;;;;5004529;28;20576;-61
2023/04/06 06:47:21;;;;;;;21.10;15.47;;;11.10;76.60;;;;;;4988110;28;21303;-61
2023/04/06 06:49:49;;;;;;;16.80;13.87;;;11.60;75.70;;;;;;5004892;28;20484;-62
2023/04/06 06:52:16;;;;;;;15.47;11.63;;;12.00;74.60;;;;;;5003051;28;20878;-61
2023/04/06 06:54:43;;;;;;;16.87;13.20;;;12.20;72.80;;;;;;4980502;28;20491;-62
2023/04/06 06:57:10;;;;;;;14.53;11.33;;;12.30;71.50;;;;;;4980203;28;20507;-61
2023/04/06 06:59:36;;;;;;;14.57;13.10;;;12.30;71.60;;;;;;4999197;28;20539;-62
2023/04/06 07:02:03;;;;;;;15.13;13.37;;;12.50;71.70;;;;;;4986241;28;20489;-61
2023/04/06 07:04:30;;;;;;;16.73;13.13;;;13.50;73.20;;;;;;4997914;28;20473;-62
2023/04/06 07:06:58;;;;;;;13.47;11.97;;;14.00;71.80;;;;;;4982677;28;21050;-62
2023/04/06 07:09:26;;;;;;;14.90;12.40;;;14.50;71.50;;;;;;5001069;28;20493;-61
2023/04/06 07:11:53;;;;;;;25.60;13.23;;;15.20;70.60;;;;;;4970974;28;20564;-62
2023/04/06 07:14:19;;;;;;;15.20;12.37;;;15.50;68.80;;;;;;4994624;28;20469;-62
2023/04/06 07:16:46;;;;;;;13.50;11.40;;;15.10;65.60;;;;;;4980907;28;20907;-62
2023/04/06 07:19:13;;;;;;;14.90;11.57;;;14.70;66.80;;;;;;4952346;28;20487;-61
2023/04/06 07:21:40;;;;;;;24.03;14.23;;;14.50;68.30;;;;;;4977777;28;20489;-62
2023/04/06 07:24:08;;;;;;;14.50;12.53;;;14.30;69.00;;;;;;5004612;28;20477;-62
2023/04/06 07:26:35;;;;;;;27.40;14.30;;;13.80;70.70;;;;;;4979435;28;20894;-62
2023/04/06 07:29:01;;;;;;;14.27;11.83;;;13.80;71.00;;;;;;4994108;28;20493;-62
2023/04/06 07:31:28;;;;;;;17.47;14.10;;;13.50;68.70;;;;;;4984167;28;20484;-61
2023/04/06 07:33:54;;;;;;;16.00;12.93;;;13.50;70.80;;;;;;5014911;28;20496;-62
2023/04/06 07:36:21;;;;;;;16.30;13.47;;;13.60;74.70;;;;;;5001166;28;20489;-62
2023/04/06 07:38:48;;;;;;;14.97;12.83;;;13.50;72.40;;;;;;4985956;28;21139;-62
2023/04/06 07:41:16;;;;;;;17.23;12.30;;;13.50;73.40;;;;;;5017837;28;20504;-62
2023/04/06 07:43:43;;;;;;;19.77;13.40;;;13.60;74.30;;;;;;5000674;28;20583;-62
2023/04/06 07:46:10;;;;;;;17.23;13.47;;;13.60;72.80;;;;;;5014807;28;20488;-61
2023/04/06 07:48:37;;;;;;;16.37;12.57;;;13.70;73.80;;;;;;5009378;28;20737;-62
2023/04/06 07:51:06;;;;;;;31.37;13.80;;;13.20;73.00;;;;;;5008793;28;20478;-62
2023/04/06 07:53:32;;;;;;;19.87;15.57;;;13.20;73.40;;;;;;5021595;28;21058;-62
2023/04/06 07:56:00;;;;;;;35.53;14.10;;;13.10;75.30;;;;;;4986626;28;20484;-62
2023/04/06 07:58:28;;;;;;;18.70;14.50;;;13.10;75.80;;;;;;5029491;28;20564;-61
2023/04/06 08:00:55;;;;;;;17.00;13.53;;;13.20;76.90;;;;;;5007428;28;20510;-61
2023/04/06 08:03:25;;;;;;;25.50;12.70;;;12.80;75.20;;;;;;4999067;28;20485;-62
2023/04/06 08:05:52;;;;;;;15.40;12.43;;;12.50;73.80;;;;;;4984959;28;20479;-62
2023/04/06 08:08:19;;;;;;;17.13;12.47;;;12.30;74.00;;;;;;5004205;28;20816;-62
2023/04/06 08:10:45;;;;;;;22.70;11.83;;;12.20;75.40;;;;;;4983048;28;20543;-61
2023/04/06 08:13:12;;;;;;;17.27;11.43;;;12.30;74.60;;;;;;4990054;28;20515;-62
2023/04/06 08:15:40;;;;;;;18.87;13.80;;;12.20;73.60;;;;;;4993517;28;20986;-63
2023/04/06 08:18:07;;;;;;;15.90;9.47;;;11.80;69.60;;;;;;4981271;28;20577;-62
2023/04/06 08:20:34;;;;;;;13.03;11.33;;;11.80;70.60;;;;;;4984224;28;20481;-62
2023/04/06 08:23:00;;;;;;;11.63;9.00;;;11.70;71.40;;;;;;4994641;28;20482;-62
2023/04/06 08:25:27;;;;;;;17.10;10.50;;;11.30;66.20;;;;;;4981289;28;20492;-62
2023/04/06 08:27:53;;;;;;;17.30;12.47;;;11.10;66.10;;;;;;4989174;28;20483;-62
2023/04/06 08:30:20;;;;;;;15.77;9.67;;;11.30;67.20;;;;;;5004347;28;20510;-62
2023/04/06 08:32:48;;;;;;;30.07;12.10;;;11.10;66.30;;;;;;4986312;28;20873;-63
2023/04/06 08:35:15;;;;;;;16.07;11.10;;;11.20;67.20;;;;;;4993914;28;20489;-63
2023/04/06 08:37:42;;;;;;;15.03;10.43;;;11.20;69.40;;;;;;4966796;28;20563;-63
2023/04/06 08:40:09;;;;;;;21.43;10.23;;;11.30;68.20;;;;;;4982981;28;20485;-62
2023/04/06 08:42:44;;;;;;;20.10;13.00;;;11.30;68.00;;;;;;4984026;28;20687;-61
2023/04/06 08:45:12;;;;;;;17.43;11.03;;;11.40;68.30;;;;;;5000803;28;20478;-62
2023/04/06 08:47:39;;;;;;;23.87;10.70;;;11.50;68.00;;;;;;5019518;28;20492;-62
2023/04/06 08:50:11;;;;;;;17.23;12.10;;;11.40;69.20;;;;;;4998735;28;20486;-63
2023/04/06 08:52:38;;;;;;;22.33;10.33;;;11.50;69.50;;;;;;4990214;28;20818;-63
2023/04/06 08:55:06;;;;;;;15.47;11.00;;;11.40;66.80;;;;;;4998088;28;20832;-62
2023/04/06 08:57:33;;;;;;;21.50;13.77;;;11.40;66.90;;;;;;4979713;28;21094;-63
2023/04/06 09:00:01;;;;;;;20.40;11.80;;;11.00;68.70;;;;;;4996095;28;20481;-62
2023/04/06 09:02:28;;;;;;;23.70;14.53;;;11.20;67.20;;;;;;4992719;28;20579;-62
2023/04/06 09:04:55;;;;;;;23.90;10.53;;;11.20;67.80;;;;;;4975539;28;21080;-63
2023/04/06 09:07:23;;;;;;;16.60;9.90;;;11.20;68.10;;;;;;4967409;28;20482;-63
2023/04/06 09:09:51;;;;;;;20.50;11.80;;;11.20;66.60;;;;;;4977049;28;20477;-62
2023/04/06 09:12:25;;;;;;;19.63;11.57;;;11.30;69.30;;;;;;4959237;28;20501;-62
2023/04/06 09:14:52;;;;;;;23.43;13.03;;;11.30;68.10;;;;;;4970967;28;20895;-62
2023/04/06 09:17:22;;;;;;;18.50;12.23;;;11.30;68.30;;;;;;4998307;28;20519;-62
2023/04/06 09:19:49;;;;;;;21.40;13.27;;;11.40;69.50;;;;;;4995327;28;21153;-61
2023/04/06 09:22:16;;;;;;;21.10;11.93;;;11.40;69.10;;;;;;4998824;28;20662;-62
2023/04/06 09:24:47;;;;;;;14.83;8.23;;;11.30;67.00;;;;;;4985774;28;21051;-61
2023/04/06 09:27:15;;;;;;;17.90;11.67;;;11.30;68.90;;;;;;4968071;28;20499;-62
2023/04/06 09:29:46;;;;;;;17.80;11.43;;;11.30;67.80;;;;;;4938745;28;21194;-62
2023/04/06 09:32:17;;;;;;;26.63;12.53;;;11.30;69.50;;;;;;4974241;28;20489;-62
2023/04/06 09:34:48;;;;;;;36.17;12.83;;;11.40;67.60;;;;;;4960770;28;20599;-62
2023/04/06 09:37:15;;;;;;;19.30;11.80;;;11.40;66.30;;;;;;4964159;28;20481;-62
2023/04/06 09:39:42;;;;;;;22.13;11.73;;;11.50;67.60;;;;;;4977179;28;21243;-61
2023/04/06 09:42:10;;;;;;;20.83;12.80;;;11.80;68.40;;;;;;4961187;28;20489;-62
2023/04/06 09:44:37;;;;;;;22.97;14.30;;;12.00;66.90;;;;;;4998793;28;20838;-62
2023/04/06 09:47:07;;;;;;;19.90;10.87;;;12.00;65.50;;;;;;4999279;28;20719;-62
2023/04/06 09:49:34;;;;;;;22.83;12.40;;;12.00;65.10;;;;;;4976545;28;20484;-62
2023/04/06 09:52:03;;;;;;;18.57;13.03;;;12.10;66.40;;;;;;4991350;28;21032;-62
2023/04/06 09:54:32;;;;;;;23.77;15.23;;;;;;;;;;4979158;28;21042;-61
2023/04/06 09:57:05;;;;;;;14.73;9.83;;;12.10;65.30;;;;;;4980974;28;20488;-61
2023/04/06 09:59:44;;;;;;;21.20;13.60;;;12.20;66.80;;;;;;4976381;28;20477;-60
2023/04/06 10:02:18;;;;;;;16.10;8.90;;;12.30;68.30;;;;;;4972451;28;20779;-62
2023/04/06 10:04:51;;;;;;;17.83;11.67;;;12.40;65.40;;;;;;4992035;28;20809;-61
2023/04/06 10:07:18;;;;;;;13.40;9.77;;;12.10;63.30;;;;;;5007799;28;20655;-62
2023/04/06 10:09:47;;;;;;;14.00;10.20;;;12.20;67.10;;;;;;4980192;28;21072;-62
2023/04/06 10:12:14;;;;;;;14.43;9.30;;;12.40;65.90;;;;;;5014169;28;20476;-62
2023/04/06 10:14:43;;;;;;;20.63;10.60;;;12.50;64.30;;;;;;5008991;28;20757;-62
2023/04/06 10:17:11;;;;;;;15.23;11.43;;;12.60;67.90;;;;;;4998028;28;20888;-62
2023/04/06 10:19:45;;;;;;;18.30;12.03;;;12.60;67.70;;;;;;5018174;28;20491;-62
2023/04/06 10:22:15;;;;;;;18.10;10.83;;;12.70;65.00;;;;;;4986573;28;20487;-62
2023/04/06 10:24:42;;;;;;;16.23;10.17;;;12.80;67.90;;;;;;4946010;28;21103;-61
2023/04/06 10:27:10;;;;;;;11.90;8.63;;;12.70;63.80;;;;;;4986347;28;20506;-62
2023/04/06 10:29:49;;;;;;;17.80;12.00;;;12.70;64.00;;;;;;4989008;28;20512;-62
2023/04/06 10:32:16;;;;;;;13.73;10.27;;;12.60;64.80;;;;;;4999093;28;20813;-62
2023/04/06 10:34:43;;;;;;;20.30;10.37;;;12.60;65.80;;;;;;5012942;28;20468;-62
2023/04/06 10:37:14;;;;;;;15.07;11.20;;;12.70;65.40;;;;;;4990241;28;20477;-62
2023/04/06 10:39:47;;;;;;;14.97;11.53;;;12.80;68.50;;;;;;4996342;28;20484;-62
2023/04/06 10:42:14;;;;;;;18.37;11.60;;;12.80;66.30;;;;;;5016925;28;20569;-62
2023/04/06 10:44:44;;;;;;;12.10;8.53;;;12.90;66.10;;;;;;5018405;28;21071;-62
2023/04/06 10:47:19;;;;;;;27.93;10.63;;;13.00;66.90;;;;;;4987534;28;20581;-62
2023/04/06 10:49:46;;;;;;;14.80;9.33;;;13.10;67.30;;;;;;5001954;28;20509;-62
2023/04/06 10:52:13;;;;;;;11.50;8.57;;;13.10;64.80;;;;;;4986522;28;20935;-62
2023/04/06 10:54:43;;;;;;;19.17;9.50;;;13.10;64.30;;;;;;4996000;28;20484;-62
2023/04/06 10:57:10;;;;;;;12.20;10.47;;;13.10;64.90;;;;;;4948083;28;21241;-62
2023/04/06 10:59:37;;;;;;;14.27;10.97;;;;;;;;;;4989462;28;20673;-62
2023/04/06 11:02:04;;;;;;;14.17;10.43;;;13.40;63.70;;;;;;4957446;28;20497;-62
2023/04/06 11:04:32;;;;;;;15.87;8.40;;;13.40;62.80;;;;;;4985226;28;20485;-62
2023/04/06 11:06:59;;;;;;;13.87;9.50;;;;;;;;;;4959442;28;20486;-62
2023/04/06 11:09:27;;;;;;;17.07;11.67;;;13.20;61.30;;;;;;4966977;28;21356;-61
2023/04/06 11:11:55;;;;;;;15.27;10.20;;;13.10;60.20;;;;;;4993147;28;20520;-62
2023/04/06 11:14:21;;;;;;;12.00;8.63;;;13.30;65.40;;;;;;5007213;28;21027;-62
2023/04/06 11:16:49;;;;;;;13.73;10.53;;;13.20;60.40;;;;;;5017470;28;21916;-62
2023/04/06 11:19:16;;;;;;;14.47;10.43;;;13.30;63.90;;;;;;5016640;28;20485;-63
2023/04/06 11:21:47;;;;;;;15.03;11.53;;;13.50;65.40;;;;;;4992286;28;20485;-62
2023/04/06 11:24:16;;;;;;;15.60;11.13;;;13.60;69.10;;;;;;4994521;28;20518;-61
2023/04/06 11:26:45;;;;;;;14.43;11.63;;;13.60;64.40;;;;;;4988075;28;20918;-62
2023/04/06 11:29:13;;;;;;;16.03;7.57;;;13.80;66.30;;;;;;4980340;28;20485;-62
2023/04/06 11:31:42;;;;;;;17.33;10.00;;;13.70;62.00;;;;;;5004450;28;20480;-63
2023/04/06 11:34:13;;;;;;;14.90;9.63;;;12.90;63.20;;;;;;4995239;28;20476;-63
2023/04/06 11:36:46;;;;;;;20.50;10.50;;;13.80;64.60;;;;;;4996493;28;20864;-63
2023/04/06 11:39:14;;;;;;;18.23;10.60;;;13.90;64.50;;;;;;4991065;28;20487;-62
2023/04/06 11:41:40;;;;;;;17.77;9.97;;;14.20;65.00;;;;;;4984229;28;20894;-62
2023/04/06 11:44:07;;;;;;;10.90;7.70;;;14.10;65.10;;;;;;4967607;28;20491;-62
2023/04/06 11:46:34;;;;;;;14.30;9.73;;;13.90;63.50;;;;;;4965778;28;20521;-62
2023/04/06 11:49:02;;;;;;;13.00;10.40;;;14.00;63.50;;;;;;4989772;28;21008;-62
2023/04/06 11:51:29;;;;;;;10.57;7.50;;;14.00;66.00;;;;;;4992965;28;20492;-62
2023/04/06 11:53:57;;;;;;;16.57;10.40;;;13.90;62.20;;;;;;5015775;28;20981;-62
2023/04/06 11:56:28;;;;;;;14.73;11.03;;;13.70;62.10;;;;;;5013990;28;20481;-62
2023/04/06 11:58:59;;;;;;;21.63;10.60;;;13.70;65.60;;;;;;5015491;28;20889;-62
2023/04/06 12:01:27;;;;;;;12.03;8.80;;;13.70;64.90;;;;;;5024307;28;20575;-63
2023/04/06 12:03:53;;;;;;;18.97;9.27;;;13.60;65.70;;;;;;5031404;28;20533;-62
2023/04/06 12:06:20;;;;;;;17.30;10.33;;;13.50;64.70;;;;;;4994805;28;20491;-62
2023/04/06 12:08:47;;;;;;;16.60;10.77;;;13.60;65.00;;;;;;5012690;28;20483;-63
2023/04/06 12:11:15;;;;;;;29.80;9.10;;;13.80;66.20;;;;;;4992979;28;20922;-62
2023/04/06 12:13:42;;;;;;;8.67;6.47;;;13.90;63.90;;;;;;5000692;28;21021;-62
2023/04/06 12:16:08;;;;;;;23.23;11.07;;;13.90;64.20;;;;;;4993193;28;20480;-62
2023/04/06 12:18:35;;;;;;;23.57;11.20;;;14.10;64.60;;;;;;4970493;28;20494;-62
2023/04/06 12:21:02;;;;;;;17.57;9.50;;;14.10;63.60;;;;;;4985356;28;20483;-62
2023/04/06 12:23:28;;;;;;;18.30;8.43;;;14.10;65.40;;;;;;4991439;28;20539;-62
2023/04/06 12:25:55;;;;;;;13.97;8.67;;;14.20;65.30;;;;;;4965678;28;20927;-62
2023/04/06 12:28:26;;;;;;;16.30;11.13;;;13.90;63.50;;;;;;4994372;28;21069;-62
2023/04/06 12:30:53;;;;;;;12.83;8.40;;;14.00;64.90;;;;;;5000790;28;20814;-63
2023/04/06 12:33:20;;;;;;;24.50;10.40;;;14.10;66.20;;;;;;4992399;28;20496;-63
2023/04/06 12:35:47;;;;;;;13.20;8.93;;;14.10;65.50;;;;;;5008184;28;20484;-63